Time;durP1;ratioP1;P1;durP2;ratioP2;P2;SDS_P1;SDS_P2;PMS_P1;PMS_P2;Temp;Humidity;BMP_temperature;BMP_pressure;BME280_temperature;BME280_humidity;BME280_pressure;Samples;Min_cycle;Max_cycle;Signal;HPM_P1;HPM_P2
2021/12/05 00:24:12;;;;;;;76.50;34.78;;;;;;;;;;5033199;28;20022;-43
2021/12/05 00:26:38;;;;;;;78.03;37.15;;;;;;;;;;5041954;28;20018;-42
2021/12/05 00:29:17;;;;;;;83.85;37.75;;;;;;;;;;5042138;28;20025;-41
2021/12/05 00:50:48;;;;;;;79.57;34.97;;;;;;;;;;5052786;28;20028;-42
2021/12/05 01:16:22;;;;;;;62.50;31.17;;;;;;;;;;5032036;28;20036;-43
2021/12/05 01:18:48;;;;;;;76.60;32.88;;;;;;;;;;5032585;28;20033;-42
2021/12/05 01:21:15;;;;;;;86.35;35.92;;;;;;;;;;5031124;28;20084;-42
2021/12/05 01:23:51;;;;;;;83.15;33.60;;;;;;;;;;5043960;28;20031;-42
2021/12/05 01:26:36;;;;;;;73.20;33.80;;;;;;;;;;5032900;28;20029;-42
2021/12/05 01:29:17;;;;;;;64.75;31.30;;;;;;;;;;5045916;28;20526;-42
2021/12/05 01:50:18;;;;;;;63.42;29.25;;;;;;;;;;5052044;28;20087;-42
2021/12/05 02:09:52;;;;;;;61.60;29.85;;;;;;;;;;5043931;28;20435;-42
2021/12/05 02:15:22;;;;;;;63.17;28.90;;;;;;;;;;5040777;28;20175;-42
2021/12/05 02:41:25;;;;;;;60.00;30.63;;;;;;;;;;5035275;28;20049;-41
2021/12/05 02:44:04;;;;;;;70.43;30.65;;;;;;;;;;5049762;28;20025;-43
2021/12/05 02:46:30;;;;;;;61.13;31.45;;;;;;;;;;5055349;28;20078;-42
2021/12/05 02:49:00;;;;;;;69.63;34.08;;;;;;;;;;5054979;28;20116;-42
2021/12/05 02:51:27;;;;;;;66.75;30.27;;;;;;;;;;5055218;28;20016;-43
2021/12/05 02:54:16;;;;;;;57.70;29.08;;;;;;;;;;5054742;28;20020;-41
2021/12/05 02:56:45;;;;;;;63.72;31.50;;;;;;;;;;5054917;28;20052;-41
2021/12/05 02:59:49;;;;;;;60.75;28.95;;;;;;;;;;5054755;28;20031;-42
2021/12/05 03:02:08;;;;;;;67.38;31.67;;;;;;;;;;5053238;28;20051;-43
2021/12/05 03:04:36;;;;;;;63.35;29.83;;;;;;;;;;5054378;28;20036;-40
2021/12/05 03:07:05;;;;;;;55.88;29.42;;;;;;;;;;5053600;28;20025;-42
2021/12/05 03:09:30;;;;;;;;;;;;;;;;;;5055279;28;20027;-41
2021/12/05 03:11:56;;;;;;;66.72;29.67;;;;;;;;;;5053597;28;20259;-41
2021/12/05 03:14:22;;;;;;;63.88;30.02;;;;;;;;;;5052894;28;20034;-41
2021/12/05 03:16:47;;;;;;;69.47;30.83;;;;;;;;;;5054343;28;20071;-43
2021/12/05 03:19:14;;;;;;;59.08;29.38;;;;;;;;;;5036373;28;20116;-42
2021/12/05 03:21:40;;;;;;;57.97;27.90;;;;;;;;;;5048588;28;20023;-43
2021/12/05 03:24:06;;;;;;;59.47;28.80;;;;;;;;;;5047666;28;20080;-41
2021/12/05 03:26:33;;;;;;;57.55;28.08;;;;;;;;;;5042904;28;20019;-42
2021/12/05 03:28:59;;;;;;;55.17;26.98;;;;;;;;;;5054416;28;20025;-42
2021/12/05 03:31:26;;;;;;;57.78;27.05;;;;;;;;;;5054143;28;20126;-42
2021/12/05 03:33:52;;;;;;;59.13;27.65;;;;;;;;;;5054164;28;20056;-42
2021/12/05 03:36:17;;;;;;;57.70;28.67;;;;;;;;;;5054459;28;20063;-44
2021/12/05 03:38:42;;;;;;;54.40;27.25;;;;;;;;;;5054423;28;20035;-42
2021/12/05 03:41:09;;;;;;;60.63;28.10;;;;;;;;;;5052812;28;20564;-43
2021/12/05 03:43:35;;;;;;;56.00;25.75;;;;;;;;;;5053859;28;20143;-41
2021/12/05 03:46:02;;;;;;;58.10;27.75;;;;;;;;;;5054034;28;20100;-41
2021/12/05 03:48:29;;;;;;;53.80;27.73;;;;;;;;;;5053915;28;20546;-41
2021/12/05 03:50:57;;;;;;;59.35;27.20;;;;;;;;;;5053973;28;20028;-41
2021/12/05 03:53:22;;;;;;;48.45;26.40;;;;;;;;;;5052360;28;20024;-42
2021/12/05 03:55:49;;;;;;;53.05;27.25;;;;;;;;;;5052701;28;20021;-41
2021/12/05 03:58:15;;;;;;;57.33;27.88;;;;;;;;;;5053726;28;20045;-42
2021/12/05 04:00:43;;;;;;;61.28;28.25;;;;;;;;;;5053408;28;20036;-41
2021/12/05 04:03:10;;;;;;;52.25;25.50;;;;;;;;;;5053610;28;20028;-43
2021/12/05 04:05:35;;;;;;;61.53;30.20;;;;;;;;;;5053484;28;20995;-41
2021/12/05 04:08:02;;;;;;;59.40;28.45;;;;;;;;;;5053815;28;20017;-42
2021/12/05 04:10:28;;;;;;;60.83;28.23;;;;;;;;;;5053443;28;20028;-41
2021/12/05 04:12:54;;;;;;;60.35;27.90;;;;;;;;;;5044019;28;20112;-41
2021/12/05 04:15:20;;;;;;;56.15;27.55;;;;;;;;;;5033186;28;20096;-41
2021/12/05 04:17:45;;;;;;;64.68;29.23;;;;;;;;;;5033484;28;20060;-41
2021/12/05 04:20:12;;;;;;;66.88;30.23;;;;;;;;;;5046413;28;20065;-41
2021/12/05 04:22:37;;;;;;;59.88;29.27;;;;;;;;;;5052773;28;20376;-41
2021/12/05 04:25:07;;;;;;;59.72;28.48;;;;;;;;;;5038877;28;20025;-42
2021/12/05 04:27:33;;;;;;;63.92;30.15;;;;;;;;;;5033315;28;20099;-41
2021/12/05 04:29:59;;;;;;;64.00;29.92;;;;;;;;;;5033045;28;20466;-43
2021/12/05 04:32:24;;;;;;;63.47;29.83;;;;;;;;;;5033068;28;20036;-41
2021/12/05 04:34:50;;;;;;;59.85;29.17;;;;;;;;;;5033139;28;20021;-46
2021/12/05 04:37:15;;;;;;;59.30;29.35;;;;;;;;;;5033313;28;20018;-41
2021/12/05 04:39:40;;;;;;;59.33;28.73;;;;;;;;;;5031754;28;20392;-42
2021/12/05 04:42:06;;;;;;;63.53;29.35;;;;;;;;;;5033038;28;20036;-42
2021/12/05 04:44:32;;;;;;;55.35;28.52;;;;;;;;;;5032718;28;20465;-44
2021/12/05 04:47:00;;;;;;;59.85;28.60;;;;;;;;;;5031566;28;20017;-42
2021/12/05 04:49:25;;;;;;;62.42;29.27;;;;;;;;;;5044798;28;20025;-41
2021/12/05 04:51:51;;;;;;;55.03;27.13;;;;;;;;;;5034782;28;20021;-41
2021/12/05 04:54:17;;;;;;;63.03;28.80;;;;;;;;;;5031214;28;20446;-41
2021/12/05 04:56:44;;;;;;;62.65;29.92;;;;;;;;;;5032664;28;20530;-41
2021/12/05 04:59:14;;;;;;;64.22;28.95;;;;;;;;;;5032353;28;20047;-43
2021/12/05 05:01:42;;;;;;;60.65;29.98;;;;;;;;;;5032621;28;20056;-41
2021/12/05 05:04:18;;;;;;;59.10;28.38;;;;;;;;;;5032488;28;20049;-41
2021/12/05 05:06:44;;;;;;;57.50;27.92;;;;;;;;;;5032766;28;20033;-42
2021/12/05 05:09:09;;;;;;;55.20;26.77;;;;;;;;;;5031306;28;20021;-43
2021/12/05 05:11:34;;;;;;;61.22;28.00;;;;;;;;;;5032578;28;20018;-42
2021/12/05 05:14:00;;;;;;;55.33;28.13;;;;;;;;;;5031980;28;20100;-43
2021/12/05 05:16:26;;;;;;;57.03;27.95;;;;;;;;;;5035035;28;20040;-42
2021/12/05 05:18:56;;;;;;;59.92;28.02;;;;;;;;;;5051062;28;20050;-42
2021/12/05 05:43:12;;;;;;;58.25;27.55;;;;;;;;;;5051870;28;20025;-42
2021/12/05 05:50:52;;;;;;;57.90;27.88;;;;;;;;;;5052293;28;20036;-41
2021/12/05 05:53:17;;;;;;;60.13;27.38;;;;;;;;;;5051964;28;20033;-41
2021/12/05 05:55:43;;;;;;;58.25;27.33;;;;;;;;;;5050393;28;20032;-42
2021/12/05 05:58:13;;;;;;;56.22;27.80;;;;;;;;;;5051667;28;20052;-41
2021/12/05 06:00:53;;;;;;;56.72;27.90;;;;;;;;;;5052046;28;20051;-42
2021/12/05 06:03:22;;;;;;;54.88;26.27;;;;;;;;;;5051666;28;20028;-42
2021/12/05 06:05:49;;;;;;;56.03;26.40;;;;;;;;;;5052010;28;20049;-41
2021/12/05 06:08:14;;;;;;;53.70;26.08;;;;;;;;;;5051627;28;20031;-41
2021/12/05 06:10:39;;;;;;;57.72;27.98;;;;;;;;;;5051749;28;20100;-43
2021/12/05 06:13:05;;;;;;;57.15;28.08;;;;;;;;;;5048037;28;20021;-42
2021/12/05 06:15:30;;;;;;;58.70;28.35;;;;;;;;;;5040522;28;20043;-42
2021/12/05 06:17:56;;;;;;;57.72;27.30;;;;;;;;;;5050414;28;20513;-41
2021/12/05 06:20:25;;;;;;;64.88;30.10;;;;;;;;;;5051929;28;20032;-41
2021/12/05 06:22:50;;;;;;;62.63;30.58;;;;;;;;;;5050072;28;20014;-42
2021/12/05 06:25:23;;;;;;;60.22;29.15;;;;;;;;;;5032167;28;20025;-41
2021/12/05 06:27:50;;;;;;;53.58;26.40;;;;;;;;;;5030559;28;20460;-42
2021/12/05 06:30:36;;;;;;;53.05;28.40;;;;;;;;;;5031967;28;20021;-41
2021/12/05 06:46:13;;;;;;;65.40;33.58;;;;;;;;;;5053193;28;20029;-41
2021/12/05 06:48:42;;;;;;;64.18;32.55;;;;;;;;;;5055584;28;20032;-41
2021/12/05 06:51:08;;;;;;;63.67;30.80;;;;;;;;;;5053799;28;20036;-41
2021/12/05 06:53:33;;;;;;;62.50;29.05;;;;;;;;;;5054816;28;20021;-41
2021/12/05 06:55:58;;;;;;;54.20;28.63;;;;;;;;;;5054927;28;20017;-41
2021/12/05 06:58:24;;;;;;;55.45;27.45;;;;;;;;;;5054479;28;20077;-42
2021/12/05 07:00:49;;;;;;;61.20;28.80;;;;;;;;;;5054883;28;20081;-41
2021/12/05 07:03:15;;;;;;;54.83;27.63;;;;;;;;;;5054501;28;20028;-41
2021/12/05 07:05:54;;;;;;;53.17;26.73;;;;;;;;;;5055122;28;20028;-42
2021/12/05 07:08:22;;;;;;;54.00;26.27;;;;;;;;;;5054909;28;20017;-42
2021/12/05 07:11:11;;;;;;;52.40;24.88;;;;;;;;;;5053483;28;20064;-44
2021/12/05 07:16:54;;;;;;;60.17;28.75;;;;;;;;;;5032247;28;20064;-41
2021/12/05 07:22:15;;;;;;;60.85;28.92;;;;;;;;;;5054686;28;20028;-41
2021/12/05 07:42:57;;;;;;;57.88;28.25;;;;;;;;;;5053886;28;20035;-43
2021/12/05 07:45:33;;;;;;;63.28;27.00;;;;;;;;;;5054228;28;20423;-42
2021/12/05 07:48:06;;;;;;;60.42;27.80;;;;;;;;;;5053973;28;20020;-41
2021/12/05 07:50:45;;;;;;;56.95;28.95;;;;;;;;;;5053912;28;20532;-40
2021/12/05 07:53:18;;;;;;;54.90;27.55;;;;;;;;;;5054154;28;20079;-42
2021/12/05 07:55:46;;;;;;;59.10;27.73;;;;;;;;;;5054099;28;20059;-42
2021/12/05 08:16:51;;;;;;;56.03;27.20;;;;;;;;;;5053791;28;20047;-42
2021/12/05 08:19:17;;;;;;;;;;;;;;;;;;5053865;28;20039;-41
2021/12/05 08:21:42;;;;;;;58.20;26.95;;;;;;;;;;5053533;28;19905;-41
2021/12/05 08:24:08;;;;;;;51.38;27.52;;;;;;;;;;5047843;28;20100;-42
2021/12/05 08:26:35;;;;;;;54.25;26.73;;;;;;;;;;5053269;28;20043;-47
2021/12/05 08:29:11;;;;;;;57.30;27.65;;;;;;;;;;5053639;28;20017;-42
2021/12/05 09:30:39;;;;;;;68.30;33.17;;;;;;;;;;5034597;28;20044;-41
2021/12/05 10:09:06;;;;;;;70.90;35.03;;;;;;;;;;5041496;28;20096;-41
2021/12/05 10:16:36;;;;;;;76.30;35.55;;;;;;;;;;5032027;28;20029;-42
2021/12/05 10:38:29;;;;;;;;;;;;;;;;;;5055317;28;20025;-43
2021/12/05 10:41:06;;;;;;;70.32;32.92;;;;;;;;;;5054671;28;20359;-41
2021/12/05 10:43:31;;;;;;;84.78;38.28;;;;;;;;;;5055050;28;20020;-42
2021/12/05 10:46:17;;;;;;;63.33;31.35;;;;;;;;;;5054986;28;20021;-42
2021/12/05 10:49:03;;;;;;;70.05;33.10;;;;;;;;;;5053229;28;20037;-41
2021/12/05 10:51:33;;;;;;;69.35;35.03;;;;;;;;;;5054718;28;20021;-42
2021/12/05 10:54:00;;;;;;;71.65;35.33;;;;;;;;;;5054024;28;20029;-41
2021/12/05 10:56:36;;;;;;;69.78;31.98;;;;;;;;;;5054956;28;20045;-42
2021/12/05 10:59:09;;;;;;;74.72;35.58;;;;;;;;;;5054550;28;20056;-41
2021/12/05 11:01:34;;;;;;;70.90;34.78;;;;;;;;;;5055071;28;20464;-41
2021/12/05 11:04:01;;;;;;;77.15;35.65;;;;;;;;;;5054607;28;20017;-41
2021/12/05 11:06:33;;;;;;;68.68;34.15;;;;;;;;;;5049028;28;20046;-41
2021/12/05 11:09:00;;;;;;;64.88;32.40;;;;;;;;;;5039879;28;20456;-42
2021/12/05 11:11:26;;;;;;;71.88;31.48;;;;;;;;;;5053733;28;20032;-41
2021/12/05 11:13:52;;;;;;;72.50;32.78;;;;;;;;;;5053486;28;20023;-41
2021/12/05 11:16:34;;;;;;;73.95;33.60;;;;;;;;;;5054429;28;20025;-41
2021/12/05 11:19:00;;;;;;;73.60;34.22;;;;;;;;;;5054532;28;20111;-41
2021/12/05 11:21:35;;;;;;;62.72;31.05;;;;;;;;;;5054499;28;20100;-41
2021/12/05 11:24:16;;;;;;;66.88;31.80;;;;;;;;;;5035119;28;20027;-41
2021/12/05 11:26:42;;;;;;;65.93;31.67;;;;;;;;;;5053887;28;20047;-42
2021/12/05 11:29:08;;;;;;;63.25;31.20;;;;;;;;;;5053943;28;20221;-41
2021/12/05 11:31:34;;;;;;;59.63;29.73;;;;;;;;;;5049574;28;20139;-41
2021/12/05 11:34:00;;;;;;;60.80;30.83;;;;;;;;;;5036691;28;20022;-41
2021/12/05 11:36:26;;;;;;;61.83;30.38;;;;;;;;;;5033327;28;20021;-40
2021/12/05 11:38:52;;;;;;;61.85;30.35;;;;;;;;;;5033449;28;20068;-41
2021/12/05 11:41:22;;;;;;;69.03;32.05;;;;;;;;;;5034403;28;20408;-40
2021/12/05 11:43:51;;;;;;;62.42;31.10;;;;;;;;;;5033883;28;20101;-41
2021/12/05 11:46:16;;;;;;;59.70;30.75;;;;;;;;;;5034235;28;20377;-41
2021/12/05 11:48:44;;;;;;;56.58;29.45;;;;;;;;;;5034102;28;20056;-42
2021/12/05 11:51:22;;;;;;;62.55;31.40;;;;;;;;;;5033785;28;20109;-40
2021/12/05 11:53:52;;;;;;;55.08;29.45;;;;;;;;;;5033990;28;20415;-42
2021/12/05 11:56:20;;;;;;;56.60;28.52;;;;;;;;;;5033698;28;20380;-41
2021/12/05 11:58:59;;;;;;;50.83;26.88;;;;;;;;;;5032703;28;20030;-41
2021/12/05 12:01:33;;;;;;;49.35;25.80;;;;;;;;;;5033862;28;20026;-41
2021/12/05 12:03:58;;;;;;;52.53;28.33;;;;;;;;;;5033203;28;20419;-41
2021/12/05 12:06:23;;;;;;;56.88;26.30;;;;;;;;;;5033679;28;20026;-41
2021/12/05 12:08:50;;;;;;;55.53;29.42;;;;;;;;;;5050950;28;20020;-41
2021/12/05 12:11:15;;;;;;;61.30;30.02;;;;;;;;;;5053730;28;20059;-41
2021/12/05 12:13:41;;;;;;;59.08;31.80;;;;;;;;;;5051866;28;20025;-41
2021/12/05 12:16:08;;;;;;;55.65;27.67;;;;;;;;;;5053066;28;20086;-41
2021/12/05 12:18:35;;;;;;;60.83;28.77;;;;;;;;;;5053622;28;20443;-41
2021/12/05 12:21:11;;;;;;;61.83;28.35;;;;;;;;;;5053372;28;20065;-41
2021/12/05 12:23:37;;;;;;;54.17;27.92;;;;;;;;;;5035407;28;20033;-44
2021/12/05 12:26:04;;;;;;;56.90;29.52;;;;;;;;;;5033653;28;20022;-41
2021/12/05 12:28:29;;;;;;;55.40;27.88;;;;;;;;;;5033304;28;20376;-42
2021/12/05 12:31:00;;;;;;;56.33;27.95;;;;;;;;;;5032962;28;20040;-41
2021/12/05 12:33:31;;;;;;;109.50;50.40;;;;;;;;;;5033119;28;20028;-41
2021/12/05 12:35:56;;;;;;;68.45;34.35;;;;;;;;;;5033612;28;20461;-43
2021/12/05 12:38:23;;;;;;;62.72;31.77;;;;;;;;;;5033235;28;20029;-42
2021/12/05 12:41:01;;;;;;;54.65;26.90;;;;;;;;;;5033026;28;20073;-42
2021/12/05 12:43:38;;;;;;;52.30;26.20;;;;;;;;;;5032190;28;20101;-42
2021/12/05 12:46:21;;;;;;;63.25;29.85;;;;;;;;;;5033475;28;20319;-42
2021/12/05 12:48:48;;;;;;;61.28;28.27;;;;;;;;;;5040072;28;20021;-42
2021/12/05 12:51:46;;;;;;;54.42;26.08;;;;;;;;;;5052591;28;20021;-43
2021/12/05 12:54:14;;;;;;;51.63;25.10;;;;;;;;;;5039924;28;20164;-42
2021/12/05 12:56:41;;;;;;;48.30;25.90;;;;;;;;;;5031385;28;20448;-41
2021/12/05 12:59:12;;;;;;;57.40;27.02;;;;;;;;;;5032705;28;20247;-41
2021/12/05 13:12:48;;;;;;;54.35;27.17;;;;;;;;;;5051547;28;20044;-42
2021/12/05 13:15:22;;;;;;;52.22;27.00;;;;;;;;;;5051258;28;20545;-41
2021/12/05 13:17:52;;;;;;;57.47;27.23;;;;;;;;;;5051149;28;20028;-41
2021/12/05 13:20:20;;;;;;;58.78;28.98;;;;;;;;;;5043887;28;20041;-41
2021/12/05 13:23:02;;;;;;;61.60;27.50;;;;;;;;;;5042326;28;20031;-43
2021/12/05 13:25:29;;;;;;;51.42;27.23;;;;;;;;;;5052342;28;20033;-41
2021/12/05 13:27:56;;;;;;;56.90;27.27;;;;;;;;;;5052183;28;20020;-41
2021/12/05 13:30:29;;;;;;;62.45;28.98;;;;;;;;;;5052317;28;20021;-41
2021/12/05 13:33:14;;;;;;;51.75;25.38;;;;;;;;;;5031362;28;20040;-41
2021/12/05 13:35:40;;;;;;;52.42;26.05;;;;;;;;;;5051950;28;20135;-42
2021/12/05 13:38:06;;;;;;;49.55;24.73;;;;;;;;;;5052051;28;20028;-41
2021/12/05 13:40:32;;;;;;;48.58;24.30;;;;;;;;;;5052287;28;20029;-41
2021/12/05 13:43:05;;;;;;;54.22;27.50;;;;;;;;;;5051832;28;20460;-42
2021/12/05 13:45:43;;;;;;;48.00;24.73;;;;;;;;;;5052209;28;20021;-41
2021/12/05 13:48:15;;;;;;;49.58;25.23;;;;;;;;;;5051857;28;20545;-41
2021/12/05 13:50:42;;;;;;;54.80;26.40;;;;;;;;;;5052534;28;20128;-41
2021/12/05 13:53:07;;;;;;;56.42;26.42;;;;;;;;;;5051838;28;20633;-41
2021/12/05 13:55:36;;;;;;;58.15;25.73;;;;;;;;;;5052209;28;20087;-42
2021/12/05 13:58:13;;;;;;;53.63;26.90;;;;;;;;;;5055977;28;20049;-41
2021/12/05 14:00:59;;;;;;;54.13;26.33;;;;;;;;;;5055648;28;20033;-42
2021/12/05 14:03:44;;;;;;;57.58;27.40;;;;;;;;;;5040100;28;20033;-41
2021/12/05 14:06:42;;;;;;;57.03;26.85;;;;;;;;;;5054653;28;20045;-42
2021/12/05 14:09:19;;;;;;;55.22;26.13;;;;;;;;;;5033747;28;20103;-42
2021/12/05 14:11:52;;;;;;;57.10;26.98;;;;;;;;;;5036055;28;20037;-41
2021/12/05 14:14:19;;;;;;;51.20;24.98;;;;;;;;;;5035522;28;20026;-42
2021/12/05 14:16:46;;;;;;;52.58;26.15;;;;;;;;;;5036088;28;20020;-41
2021/12/05 14:19:13;;;;;;;53.92;24.98;;;;;;;;;;5035662;28;20056;-41
2021/12/05 14:21:44;;;;;;;60.47;24.88;;;;;;;;;;5038448;28;20516;-41
2021/12/05 14:24:11;;;;;;;63.38;26.42;;;;;;;;;;5039648;28;20016;-41
2021/12/05 14:26:39;;;;;;;50.97;23.90;;;;;;;;;;5055736;28;20036;-41
2021/12/05 14:29:06;;;;;;;56.45;25.80;;;;;;;;;;5055596;28;20032;-41
2021/12/05 14:31:34;;;;;;;53.63;25.75;;;;;;;;;;5054075;28;20024;-43
2021/12/05 14:33:59;;;;;;;52.58;24.70;;;;;;;;;;5053698;28;20464;-40
2021/12/05 14:36:26;;;;;;;54.25;26.27;;;;;;;;;;5055278;28;20100;-41
2021/12/05 14:39:10;;;;;;;54.85;25.83;;;;;;;;;;5055558;28;20119;-41
2021/12/05 14:41:35;;;;;;;50.00;25.02;;;;;;;;;;5055294;28;20033;-41
2021/12/05 14:44:01;;;;;;;49.78;24.13;;;;;;;;;;5042346;28;20025;-41
2021/12/05 14:46:26;;;;;;;49.40;24.77;;;;;;;;;;5055397;28;20040;-41
2021/12/05 14:48:55;;;;;;;46.22;22.77;;;;;;;;;;5054871;28;20067;-41
2021/12/05 14:51:38;;;;;;;51.70;24.05;;;;;;;;;;5054962;28;20052;-43
2021/12/05 14:54:04;;;;;;;50.70;23.90;;;;;;;;;;5054878;28;20025;-41
2021/12/05 14:56:31;;;;;;;44.70;21.88;;;;;;;;;;5053526;28;20407;-41
2021/12/05 14:59:05;;;;;;;51.03;22.23;;;;;;;;;;5054966;28;20019;-40
2021/12/05 15:01:30;;;;;;;45.25;22.92;;;;;;;;;;5042165;28;20037;-41
2021/12/05 15:03:55;;;;;;;45.67;23.08;;;;;;;;;;5038230;28;20094;-40
2021/12/05 15:06:29;;;;;;;47.60;23.45;;;;;;;;;;5054542;28;20017;-41
2021/12/05 15:08:54;;;;;;;47.78;21.75;;;;;;;;;;5054858;28;20418;-40
2021/12/05 15:11:20;;;;;;;53.40;23.95;;;;;;;;;;5054838;28;20021;-41
2021/12/05 15:13:45;;;;;;;56.17;25.63;;;;;;;;;;5054544;28;20035;-41
2021/12/05 15:16:10;;;;;;;61.42;27.33;;;;;;;;;;5054491;28;20082;-44
2021/12/05 15:18:39;;;;;;;62.75;29.70;;;;;;;;;;5054533;28;20017;-41
2021/12/05 15:21:04;;;;;;;70.67;31.60;;;;;;;;;;5044355;28;20033;-41
2021/12/05 15:23:31;;;;;;;68.85;30.67;;;;;;;;;;5046428;28;20372;-42
2021/12/05 15:25:58;;;;;;;67.70;30.05;;;;;;;;;;5054620;28;20021;-41
2021/12/05 15:28:24;;;;;;;65.60;29.13;;;;;;;;;;5052975;28;20533;-41
2021/12/05 15:30:49;;;;;;;63.42;28.35;;;;;;;;;;5054143;28;20033;-41
2021/12/05 15:33:17;;;;;;;64.50;29.25;;;;;;;;;;5054137;28;20043;-41
2021/12/05 15:35:43;;;;;;;71.07;29.58;;;;;;;;;;5054294;28;20032;-42
2021/12/05 15:38:11;;;;;;;59.65;25.98;;;;;;;;;;5054481;28;20373;-41
2021/12/05 15:40:38;;;;;;;61.25;27.58;;;;;;;;;;5053938;28;20059;-41
2021/12/05 15:43:05;;;;;;;58.92;25.77;;;;;;;;;;5053851;28;20033;-42
2021/12/05 15:45:31;;;;;;;58.38;24.58;;;;;;;;;;5052572;28;20049;-43
2021/12/05 15:47:57;;;;;;;68.57;26.08;;;;;;;;;;5054121;28;20095;-41
2021/12/05 15:50:24;;;;;;;65.82;27.48;;;;;;;;;;5054232;28;20123;-43
2021/12/05 15:53:01;;;;;;;60.33;25.73;;;;;;;;;;5054058;28;20028;-41
2021/12/05 15:55:34;;;;;;;64.43;26.65;;;;;;;;;;5053696;28;20029;-42
2021/12/05 15:58:32;;;;;;;71.05;29.73;;;;;;;;;;5053458;28;20068;-41
2021/12/05 16:00:59;;;;;;;72.82;29.95;;;;;;;;;;5034782;28;20046;-41
2021/12/05 16:03:26;;;;;;;70.38;28.08;;;;;;;;;;5048535;28;20440;-42
2021/12/05 16:05:56;;;;;;;84.65;30.08;;;;;;;;;;5053019;28;20031;-41
2021/12/05 16:08:21;;;;;;;77.90;31.58;;;;;;;;;;5053387;28;20052;-41
2021/12/05 16:10:51;;;;;;;84.18;32.33;;;;;;;;;;5053847;28;20444;-41
2021/12/05 16:13:21;;;;;;;81.68;31.83;;;;;;;;;;5049422;28;20028;-42
2021/12/05 16:15:48;;;;;;;84.57;33.22;;;;;;;;;;5039486;28;20074;-42
2021/12/05 16:18:15;;;;;;;85.85;32.95;;;;;;;;;;5052224;28;20020;-42
2021/12/05 16:20:40;;;;;;;85.57;32.38;;;;;;;;;;5045471;28;20094;-45
2021/12/05 16:23:10;;;;;;;79.95;33.92;;;;;;;;;;5032908;28;20112;-41
2021/12/05 16:25:44;;;;;;;83.10;33.45;;;;;;;;;;5038722;28;20045;-41
2021/12/05 16:28:12;;;;;;;86.60;32.67;;;;;;;;;;5053338;28;20486;-42
2021/12/05 16:30:39;;;;;;;99.27;35.33;;;;;;;;;;5053470;28;20020;-41
2021/12/05 16:33:05;;;;;;;92.13;33.92;;;;;;;;;;5051677;28;20254;-44
2021/12/05 16:35:32;;;;;;;89.97;33.92;;;;;;;;;;5052882;28;20098;-41
2021/12/05 16:37:58;;;;;;;89.70;35.28;;;;;;;;;;5052022;28;20051;-41
2021/12/05 16:40:24;;;;;;;95.07;35.72;;;;;;;;;;5053160;28;20045;-42
2021/12/05 16:43:05;;;;;;;93.97;36.72;;;;;;;;;;5051363;28;20392;-42
2021/12/05 16:45:34;;;;;;;90.72;35.33;;;;;;;;;;5044371;28;20022;-41
2021/12/05 16:47:59;;;;;;;;;;;;;;;;;;5033341;28;20029;-41
2021/12/05 16:50:24;;;;;;;88.50;32.65;;;;;;;;;;5033167;28;19959;-41
2021/12/05 16:52:52;;;;;;;88.50;32.83;;;;;;;;;;5032776;28;20026;-41
2021/12/05 16:55:25;;;;;;;97.75;34.60;;;;;;;;;;5032956;28;20399;-41
2021/12/05 16:58:04;;;;;;;97.53;34.30;;;;;;;;;;5031450;28;20084;-41
2021/12/05 17:00:30;;;;;;;89.40;34.07;;;;;;;;;;5040838;28;20399;-41
2021/12/05 17:02:57;;;;;;;108.53;35.28;;;;;;;;;;5052221;28;20096;-43
2021/12/05 17:05:33;;;;;;;84.05;33.67;;;;;;;;;;5052703;28;20023;-41
2021/12/05 17:08:08;;;;;;;95.25;34.08;;;;;;;;;;5052271;28;20029;-41
2021/12/05 17:10:47;;;;;;;92.05;35.70;;;;;;;;;;5052494;28;20016;-41
2021/12/05 17:13:12;;;;;;;89.30;34.50;;;;;;;;;;5051792;28;20498;-41
2021/12/05 17:16:01;;;;;;;90.30;34.53;;;;;;;;;;5052689;28;20020;-41
2021/12/05 17:18:29;;;;;;;88.47;33.40;;;;;;;;;;5047853;28;20099;-41
2021/12/05 17:21:06;;;;;;;89.30;31.67;;;;;;;;;;5046572;28;20139;-41
2021/12/05 17:23:42;;;;;;;90.32;33.42;;;;;;;;;;5051663;28;20027;-41
2021/12/05 17:26:07;;;;;;;83.55;32.63;;;;;;;;;;5052364;28;20109;-41
2021/12/05 17:28:41;;;;;;;79.93;31.70;;;;;;;;;;5052247;28;20524;-41
2021/12/05 17:31:09;;;;;;;75.00;31.90;;;;;;;;;;5051258;28;20052;-41
2021/12/05 17:33:36;;;;;;;86.10;31.85;;;;;;;;;;5052028;28;20159;-41
2021/12/05 17:36:31;;;;;;;75.40;29.90;;;;;;;;;;5051746;28;20462;-41
2021/12/05 17:39:00;;;;;;;68.25;28.52;;;;;;;;;;5051382;28;20139;-41
2021/12/05 17:41:27;;;;;;;66.80;28.40;;;;;;;;;;5051849;28;20029;-42
2021/12/05 17:43:52;;;;;;;60.47;28.08;;;;;;;;;;5051789;28;20033;-43
2021/12/05 17:46:18;;;;;;;71.30;30.08;;;;;;;;;;5051950;28;20471;-41
2021/12/05 17:48:43;;;;;;;60.53;27.05;;;;;;;;;;5051714;28;20021;-41
2021/12/05 17:51:09;;;;;;;60.38;26.85;;;;;;;;;;5051900;28;20399;-41
2021/12/05 17:53:36;;;;;;;66.60;27.55;;;;;;;;;;5051716;28;20021;-42
2021/12/05 17:56:10;;;;;;;60.72;27.17;;;;;;;;;;5050863;28;20097;-42
2021/12/05 18:03:44;;;;;;;61.65;26.45;;;;;;;;;;5031523;28;20183;-41
2021/12/05 18:06:10;;;;;;;66.45;28.83;;;;;;;;;;5032364;28;20488;-41
2021/12/05 18:08:36;;;;;;;66.97;28.67;;;;;;;;;;5031945;28;20358;-41
2021/12/05 18:11:07;;;;;;;61.05;27.77;;;;;;;;;;5031906;28;20441;-41
2021/12/05 18:13:36;;;;;;;61.78;28.55;;;;;;;;;;5030246;28;20033;-42
2021/12/05 18:16:11;;;;;;;61.50;27.57;;;;;;;;;;5030428;28;20025;-41
2021/12/05 18:18:37;;;;;;;60.97;29.05;;;;;;;;;;5030754;28;20472;-41
2021/12/05 18:21:04;;;;;;;56.83;27.75;;;;;;;;;;5042319;28;20091;-41
2021/12/05 18:23:29;;;;;;;70.95;30.38;;;;;;;;;;5051381;28;20380;-41
2021/12/05 18:25:56;;;;;;;70.03;29.15;;;;;;;;;;5052089;28;20029;-42
2021/12/05 18:28:21;;;;;;;72.07;28.25;;;;;;;;;;5050104;28;20021;-42
2021/12/05 18:30:47;;;;;;;70.85;30.20;;;;;;;;;;5051662;28;20448;-41
2021/12/05 18:33:13;;;;;;;65.50;30.60;;;;;;;;;;5050307;28;20099;-41
2021/12/05 18:35:39;;;;;;;66.13;29.17;;;;;;;;;;5051833;28;20052;-41
2021/12/05 18:38:07;;;;;;;73.80;30.55;;;;;;;;;;5051592;28;20058;-43
2021/12/05 18:40:32;;;;;;;62.63;29.05;;;;;;;;;;5051757;28;20491;-41
2021/12/05 18:42:58;;;;;;;61.13;26.00;;;;;;;;;;5054209;28;20025;-41
2021/12/05 18:45:27;;;;;;;62.55;27.80;;;;;;;;;;5054180;28;20025;-41
2021/12/05 18:47:52;;;;;;;66.50;28.83;;;;;;;;;;5055642;28;20021;-41
2021/12/05 18:50:17;;;;;;;68.38;28.80;;;;;;;;;;5053932;28;20017;-40
2021/12/05 18:52:43;;;;;;;58.50;26.08;;;;;;;;;;5053606;28;20111;-44
2021/12/05 18:55:10;;;;;;;64.25;27.23;;;;;;;;;;5050079;28;20052;-42
2021/12/05 18:57:36;;;;;;;62.05;25.95;;;;;;;;;;5034794;28;20420;-41
2021/12/05 19:00:09;;;;;;;66.55;26.92;;;;;;;;;;5053209;28;20032;-42
2021/12/05 19:05:31;;;;;;;62.58;26.98;;;;;;;;;;5054750;28;20047;-41
2021/12/05 19:08:17;;;;;;;62.15;28.17;;;;;;;;;;5054628;28;20365;-42
2021/12/05 19:13:27;;;;;;;77.25;29.00;;;;;;;;;;5054428;28;20063;-41
2021/12/05 19:15:53;;;;;;;72.63;29.95;;;;;;;;;;5054697;28;20036;-41
2021/12/05 19:18:19;;;;;;;75.63;31.67;;;;;;;;;;5054621;28;20544;-43
2021/12/05 19:20:44;;;;;;;69.25;30.63;;;;;;;;;;5048901;28;20036;-42
2021/12/05 19:23:10;;;;;;;61.08;27.58;;;;;;;;;;5052995;28;20364;-43
2021/12/05 19:25:37;;;;;;;70.38;29.85;;;;;;;;;;5053542;28;20020;-41
2021/12/05 19:28:04;;;;;;;63.58;27.67;;;;;;;;;;5054305;28;20036;-41
2021/12/05 19:30:50;;;;;;;56.30;26.38;;;;;;;;;;5054540;28;20032;-41
2021/12/05 19:33:16;;;;;;;47.03;23.50;;;;;;;;;;5053479;28;20036;-41
2021/12/05 19:35:41;;;;;;;48.63;22.10;;;;;;;;;;5054336;28;20387;-41
2021/12/05 19:38:08;;;;;;;48.53;23.73;;;;;;;;;;5054373;28;20100;-41
2021/12/05 19:40:34;;;;;;;46.13;21.73;;;;;;;;;;5054381;28;20395;-43
2021/12/05 19:43:00;;;;;;;43.55;21.85;;;;;;;;;;5053593;28;20029;-41
2021/12/05 19:45:27;;;;;;;44.33;22.45;;;;;;;;;;5054154;28;20039;-41
2021/12/05 19:47:53;;;;;;;41.35;21.42;;;;;;;;;;5053820;28;20052;-41
2021/12/05 19:50:19;;;;;;;41.42;21.17;;;;;;;;;;5053982;28;20079;-41
2021/12/05 19:52:45;;;;;;;36.97;19.38;;;;;;;;;;5051595;28;20527;-42
2021/12/05 19:55:11;;;;;;;34.88;18.17;;;;;;;;;;5037141;28;20487;-41
2021/12/05 19:57:36;;;;;;;34.40;17.50;;;;;;;;;;5046670;28;20048;-41
2021/12/05 20:00:07;;;;;;;37.00;18.23;;;;;;;;;;5053631;28;20391;-42
2021/12/05 20:02:32;;;;;;;32.65;18.17;;;;;;;;;;5053532;28;20029;-41
2021/12/05 20:04:58;;;;;;;37.42;19.00;;;;;;;;;;5053573;28;20091;-41
2021/12/05 20:07:23;;;;;;;33.65;17.73;;;;;;;;;;5053975;28;20053;-41
2021/12/05 20:09:49;;;;;;;31.30;18.05;;;;;;;;;;5053574;28;20021;-42
2021/12/05 20:12:14;;;;;;;36.45;18.83;;;;;;;;;;5053617;28;20013;-43
2021/12/05 20:14:40;;;;;;;35.80;18.60;;;;;;;;;;5053444;28;20447;-42
2021/12/05 20:17:05;;;;;;;33.88;19.55;;;;;;;;;;5053259;28;20029;-42
2021/12/05 20:19:32;;;;;;;34.00;18.15;;;;;;;;;;5049031;28;20013;-44
2021/12/05 20:22:01;;;;;;;33.95;19.58;;;;;;;;;;5033728;28;20025;-41